DCM728 KPBI-KLAS
Flight info
| Callsign | DCM728 |
|---|---|
| Flight time | 4h 42m |
| Altitude | 38000 |
| Route | OLAKE3 JAYMC Y280 LEV J86 FST/N0516F400 J86 INW HAHAA RKSTR4 |
| Aircraft | C750/M-SBDE3FGHJ2J4J5RWXY/SB2D1 |
Departure
| Time | 2026-04-17 16:56 |
|---|---|
| Airport | Palm Beach International Airport (KPBI) |
Arrival
| Time | 2026-04-17 21:38 |
|---|---|
| Airport | Harry Reid International Airport (KLAS) |
| Time | Latitude | Longitude | Altitude | Speed | Heading |
|---|---|---|---|---|---|
| 2026-04-17 16:40 | 26.67953 | -80.09461 | 18 ft | 0 kts | 90° |
| 2026-04-17 16:51 | 26.67953 | -80.09460 | 18 ft | 2 kts | 90° |
| 2026-04-17 16:51 | 26.67974 | -80.09416 | 18 ft | 9 kts | 51° |
| 2026-04-17 16:51 | 26.68024 | -80.09373 | 18 ft | 10 kts | 16° |
| 2026-04-17 16:51 | 26.68077 | -80.09404 | 21 ft | 8 kts | 314° |
| 2026-04-17 16:52 | 26.68111 | -80.09441 | 18 ft | 7 kts | 316° |
| 2026-04-17 16:52 | 26.68154 | -80.09508 | 18 ft | 14 kts | 281° |
| 2026-04-17 16:52 | 26.68159 | -80.09627 | 18 ft | 17 kts | 273° |
| 2026-04-17 16:52 | 26.68165 | -80.09775 | 18 ft | 21 kts | 272° |
| 2026-04-17 16:53 | 26.68173 | -80.09939 | 18 ft | 20 kts | 273° |
| 2026-04-17 16:53 | 26.68179 | -80.10089 | 18 ft | 18 kts | 272° |
| 2026-04-17 16:53 | 26.68185 | -80.10225 | 18 ft | 17 kts | 272° |
| 2026-04-17 16:53 | 26.68191 | -80.10353 | 18 ft | 17 kts | 272° |
| 2026-04-17 16:54 | 26.68196 | -80.10485 | 18 ft | 17 kts | 272° |
| 2026-04-17 16:54 | 26.68202 | -80.10621 | 18 ft | 18 kts | 273° |
| 2026-04-17 16:54 | 26.68208 | -80.10760 | 18 ft | 17 kts | 272° |
| 2026-04-17 16:54 | 26.68245 | -80.10832 | 18 ft | 10 kts | 2° |
| 2026-04-17 16:55 | 26.68308 | -80.10823 | 19 ft | 8 kts | 30° |
| 2026-04-17 16:55 | 26.68317 | -80.10750 | 18 ft | 26 kts | 93° |
| 2026-04-17 16:55 | 26.68291 | -80.10161 | 20 ft | 122 kts | 93° |
| 2026-04-17 16:55 | 26.68252 | -80.09058 | 252 ft | 148 kts | 92° |
| 2026-04-17 16:56 | 26.68225 | -80.07846 | 723 ft | 168 kts | 89° |
| 2026-04-17 16:56 | 26.68188 | -80.06435 | 1011 ft | 195 kts | 90° |
| 2026-04-17 16:56 | 26.68525 | -80.04880 | 1240 ft | 221 kts | 65° |
| 2026-04-17 16:56 | 26.69284 | -80.03252 | 1504 ft | 249 kts | 62° |
| 2026-04-17 16:57 | 26.70056 | -80.01525 | 2466 ft | 246 kts | 65° |
| 2026-04-17 16:57 | 26.70805 | -79.99775 | 3264 ft | 254 kts | 65° |
| 2026-04-17 16:57 | 26.71858 | -79.98172 | 3986 ft | 262 kts | 40° |
| 2026-04-17 16:57 | 26.73494 | -79.97280 | 4846 ft | 266 kts | 15° |
| 2026-04-17 16:58 | 26.75341 | -79.96928 | 5600 ft | 272 kts | 9° |
| 2026-04-17 16:58 | 26.77247 | -79.96934 | 6251 ft | 282 kts | 347° |
| 2026-04-17 16:58 | 26.78972 | -79.97962 | 7004 ft | 285 kts | 320° |
| 2026-04-17 16:58 | 26.79808 | -79.99096 | 7500 ft | 288 kts | 300° |
| 2026-04-17 16:59 | 26.80771 | -80.01881 | 8693 ft | 288 kts | 288° |
| 2026-04-17 16:59 | 26.81191 | -80.03302 | 9212 ft | 292 kts | 288° |
| 2026-04-17 16:59 | 26.82070 | -80.06188 | 10194 ft | 300 kts | 289° |
| 2026-04-17 16:59 | 26.82786 | -80.08472 | 10445 ft | 324 kts | 289° |
| 2026-04-17 17:00 | 26.83556 | -80.10952 | 10475 ft | 350 kts | 289° |
| 2026-04-17 17:00 | 26.84367 | -80.13592 | 10855 ft | 360 kts | 289° |
| 2026-04-17 17:00 | 26.85179 | -80.16227 | 11620 ft | 358 kts | 289° |
| 2026-04-17 17:00 | 26.85730 | -80.18012 | 12053 ft | 359 kts | 289° |
| 2026-04-17 17:01 | 26.86550 | -80.20662 | 12664 ft | 362 kts | 289° |
| 2026-04-17 17:01 | 26.87361 | -80.23297 | 13380 ft | 362 kts | 289° |
| 2026-04-17 17:01 | 26.88180 | -80.25958 | 14128 ft | 362 kts | 289° |
| 2026-04-17 17:01 | 26.89013 | -80.28670 | 14689 ft | 366 kts | 289° |
| 2026-04-17 17:02 | 26.89833 | -80.31336 | 15320 ft | 366 kts | 289° |
| 2026-04-17 17:02 | 26.90666 | -80.34044 | 15805 ft | 371 kts | 289° |
| 2026-04-17 17:02 | 26.91446 | -80.36831 | 16186 ft | 378 kts | 283° |
| 2026-04-17 17:02 | 26.91776 | -80.39744 | 16858 ft | 376 kts | 277° |
| 2026-04-17 17:03 | 26.92074 | -80.42661 | 17437 ft | 379 kts | 277° |
| 2026-04-17 17:03 | 26.92409 | -80.45602 | 18002 ft | 382 kts | 278° |
| 2026-04-17 17:03 | 26.92741 | -80.48577 | 18541 ft | 386 kts | 278° |
| 2026-04-17 17:03 | 26.93056 | -80.51567 | 19064 ft | 389 kts | 277° |
| 2026-04-17 17:04 | 26.93374 | -80.54588 | 19588 ft | 392 kts | 278° |
| 2026-04-17 17:04 | 26.93704 | -80.57627 | 20165 ft | 394 kts | 278° |
| 2026-04-17 17:04 | 26.94036 | -80.60683 | 20711 ft | 396 kts | 278° |
| 2026-04-17 17:04 | 26.94363 | -80.63759 | 21275 ft | 399 kts | 278° |
| 2026-04-17 17:05 | 26.94691 | -80.66858 | 21828 ft | 402 kts | 278° |
| 2026-04-17 17:05 | 26.95025 | -80.69979 | 22394 ft | 405 kts | 278° |
| 2026-04-17 17:05 | 26.95359 | -80.73122 | 22963 ft | 408 kts | 278° |
| 2026-04-17 17:05 | 26.95695 | -80.76287 | 23515 ft | 411 kts | 278° |
| 2026-04-17 17:06 | 26.95916 | -80.79494 | 23967 ft | 415 kts | 274° |
| 2026-04-17 17:06 | 26.96027 | -80.82728 | 24470 ft | 416 kts | 274° |
| 2026-04-17 17:06 | 26.96154 | -80.85970 | 24980 ft | 417 kts | 275° |
| 2026-04-17 17:06 | 26.96293 | -80.89222 | 25458 ft | 419 kts | 275° |
| 2026-04-17 17:07 | 26.96423 | -80.92486 | 25952 ft | 420 kts | 275° |
| 2026-04-17 17:07 | 26.96544 | -80.95768 | 26450 ft | 422 kts | 275° |
| 2026-04-17 17:07 | 26.96671 | -80.99060 | 26925 ft | 424 kts | 275° |
| 2026-04-17 17:07 | 26.96802 | -81.02367 | 27395 ft | 426 kts | 275° |
| 2026-04-17 17:08 | 26.96929 | -81.05689 | 27862 ft | 428 kts | 275° |
| 2026-04-17 17:08 | 26.97054 | -81.09024 | 28334 ft | 430 kts | 275° |
| 2026-04-17 17:08 | 26.97181 | -81.12381 | 28802 ft | 432 kts | 275° |
| 2026-04-17 17:08 | 26.97309 | -81.15755 | 29247 ft | 434 kts | 275° |
| 2026-04-17 17:09 | 26.97435 | -81.19139 | 29686 ft | 436 kts | 275° |
| 2026-04-17 17:09 | 26.97561 | -81.22542 | 30114 ft | 438 kts | 275° |
| 2026-04-17 17:09 | 26.97687 | -81.25960 | 30487 ft | 440 kts | 275° |
| 2026-04-17 17:09 | 26.97814 | -81.29395 | 30849 ft | 441 kts | 275° |
| 2026-04-17 17:10 | 26.98125 | -81.32809 | 31207 ft | 440 kts | 282° |
| 2026-04-17 17:10 | 26.98805 | -81.36119 | 31801 ft | 433 kts | 288° |
| 2026-04-17 17:10 | 26.99818 | -81.39276 | 32346 ft | 428 kts | 294° |
| 2026-04-17 17:10 | 27.01145 | -81.42246 | 32881 ft | 425 kts | 300° |
| 2026-04-17 17:11 | 27.02712 | -81.45044 | 33423 ft | 422 kts | 302° |
| 2026-04-17 17:11 | 27.04276 | -81.47811 | 33985 ft | 419 kts | 302° |
| 2026-04-17 17:11 | 27.05822 | -81.50572 | 34485 ft | 416 kts | 302° |
| 2026-04-17 17:11 | 27.07367 | -81.53311 | 34964 ft | 414 kts | 302° |
| 2026-04-17 17:12 | 27.08909 | -81.56029 | 35440 ft | 412 kts | 302° |
| 2026-04-17 17:12 | 27.10437 | -81.58736 | 35924 ft | 410 kts | 302° |
| 2026-04-17 17:12 | 27.11955 | -81.61435 | 36408 ft | 408 kts | 302° |
| 2026-04-17 17:12 | 27.13466 | -81.64120 | 36905 ft | 406 kts | 302° |
| 2026-04-17 17:13 | 27.14967 | -81.66783 | 37405 ft | 403 kts | 302° |
| 2026-04-17 17:13 | 27.16462 | -81.69440 | 37911 ft | 399 kts | 303° |
| 2026-04-17 17:13 | 27.17945 | -81.72078 | 38129 ft | 404 kts | 303° |
| 2026-04-17 17:13 | 27.19461 | -81.74775 | 38132 ft | 413 kts | 303° |
| 2026-04-17 17:14 | 27.22590 | -81.80348 | 38144 ft | 430 kts | 303° |
| 2026-04-17 17:15 | 27.27381 | -81.89166 | 38146 ft | 448 kts | 297° |
| 2026-04-17 17:15 | 27.29453 | -81.95745 | 38145 ft | 453 kts | 285° |
| 2026-04-17 17:16 | 27.30750 | -82.02696 | 38147 ft | 454 kts | 285° |
| 2026-04-17 17:16 | 27.32061 | -82.09637 | 38143 ft | 454 kts | 284° |
| 2026-04-17 17:16 | 27.32694 | -82.13077 | 38158 ft | 439 kts | 284° |
| 2026-04-17 17:17 | 27.33303 | -82.16362 | 38901 ft | 417 kts | 285° |
| 2026-04-17 17:17 | 27.33885 | -82.19467 | 39901 ft | 399 kts | 285° |
| 2026-04-17 17:17 | 27.34457 | -82.22517 | 40183 ft | 400 kts | 285° |
| 2026-04-17 17:17 | 27.35028 | -82.25582 | 40527 ft | 400 kts | 284° |
| 2026-04-17 17:18 | 27.35593 | -82.28646 | 40884 ft | 400 kts | 284° |
| 2026-04-17 17:18 | 27.36160 | -82.31711 | 41221 ft | 400 kts | 284° |
| 2026-04-17 17:18 | 27.36728 | -82.34774 | 41567 ft | 400 kts | 284° |
| 2026-04-17 17:18 | 27.37296 | -82.37843 | 41892 ft | 400 kts | 284° |
| 2026-04-17 17:19 | 27.37861 | -82.40908 | 42211 ft | 400 kts | 284° |
| 2026-04-17 17:19 | 27.38425 | -82.43973 | 42547 ft | 400 kts | 284° |
| 2026-04-17 17:19 | 27.38989 | -82.47036 | 42860 ft | 400 kts | 284° |
| 2026-04-17 17:19 | 27.39553 | -82.50101 | 43153 ft | 400 kts | 283° |
| 2026-04-17 17:20 | 27.40122 | -82.53197 | 43144 ft | 407 kts | 283° |
| 2026-04-17 17:20 | 27.41288 | -82.59531 | 43153 ft | 420 kts | 284° |
| 2026-04-17 17:21 | 27.42518 | -82.66047 | 43143 ft | 432 kts | 283° |
| 2026-04-17 17:21 | 27.43758 | -82.72728 | 43147 ft | 439 kts | 283° |
| 2026-04-17 17:22 | 27.45012 | -82.79456 | 43142 ft | 439 kts | 283° |
| 2026-04-17 17:22 | 27.46262 | -82.86200 | 43147 ft | 445 kts | 283° |
| 2026-04-17 17:23 | 27.47538 | -82.93098 | 43150 ft | 454 kts | 283° |
| 2026-04-17 17:23 | 27.48821 | -83.00062 | 43142 ft | 454 kts | 283° |
| 2026-04-17 17:24 | 27.50101 | -83.07021 | 43143 ft | 454 kts | 283° |
| 2026-04-17 17:24 | 27.51379 | -83.13993 | 43145 ft | 454 kts | 283° |
| 2026-04-17 17:25 | 27.52652 | -83.20960 | 43136 ft | 454 kts | 283° |
| 2026-04-17 17:25 | 27.53913 | -83.27884 | 43139 ft | 454 kts | 283° |
| 2026-04-17 17:26 | 27.55180 | -83.34858 | 43137 ft | 454 kts | 283° |
| 2026-04-17 17:26 | 27.56443 | -83.41829 | 43138 ft | 454 kts | 283° |
| 2026-04-17 17:27 | 27.57702 | -83.48804 | 43138 ft | 454 kts | 283° |
| 2026-04-17 17:27 | 27.58958 | -83.55778 | 43134 ft | 454 kts | 283° |
| 2026-04-17 17:28 | 27.60208 | -83.62748 | 43140 ft | 454 kts | 283° |
| 2026-04-17 17:28 | 27.61457 | -83.69724 | 43144 ft | 454 kts | 283° |
| 2026-04-17 17:29 | 27.62701 | -83.76698 | 43142 ft | 454 kts | 283° |
| 2026-04-17 17:29 | 27.63941 | -83.83669 | 43143 ft | 453 kts | 283° |
| 2026-04-17 17:30 | 27.65177 | -83.90642 | 43146 ft | 454 kts | 283° |
| 2026-04-17 17:30 | 27.66407 | -83.97603 | 43141 ft | 452 kts | 283° |
| 2026-04-17 17:31 | 27.67633 | -84.04555 | 43146 ft | 452 kts | 283° |
| 2026-04-17 17:31 | 27.68855 | -84.11512 | 43144 ft | 452 kts | 283° |
| 2026-04-17 17:32 | 27.70075 | -84.18473 | 43140 ft | 452 kts | 283° |
| 2026-04-17 17:32 | 27.71290 | -84.25433 | 43141 ft | 452 kts | 283° |
| 2026-04-17 17:33 | 27.72501 | -84.32390 | 43136 ft | 451 kts | 283° |
| 2026-04-17 17:33 | 27.73705 | -84.39330 | 43140 ft | 451 kts | 283° |
| 2026-04-17 17:34 | 27.74908 | -84.46283 | 43137 ft | 451 kts | 283° |
| 2026-04-17 17:34 | 27.76108 | -84.53241 | 43150 ft | 451 kts | 283° |
| 2026-04-17 17:35 | 27.77304 | -84.60194 | 43143 ft | 452 kts | 283° |
| 2026-04-17 17:35 | 27.78496 | -84.67151 | 43118 ft | 451 kts | 282° |
| 2026-04-17 17:36 | 27.79680 | -84.74080 | 43143 ft | 452 kts | 282° |
| 2026-04-17 17:36 | 27.80869 | -84.81062 | 43151 ft | 452 kts | 282° |
| 2026-04-17 17:37 | 27.82054 | -84.88038 | 43145 ft | 452 kts | 282° |
| 2026-04-17 17:37 | 27.83236 | -84.95014 | 43150 ft | 452 kts | 282° |
| 2026-04-17 17:38 | 27.84416 | -85.01997 | 43148 ft | 452 kts | 282° |
| 2026-04-17 17:38 | 27.85591 | -85.08978 | 43144 ft | 453 kts | 282° |
| 2026-04-17 17:39 | 27.86763 | -85.15961 | 43136 ft | 452 kts | 282° |
| 2026-04-17 17:39 | 27.87931 | -85.22947 | 43139 ft | 453 kts | 282° |
| 2026-04-17 17:40 | 27.89619 | -85.29771 | 43143 ft | 451 kts | 290° |
| 2026-04-17 17:40 | 27.91650 | -85.36484 | 43152 ft | 451 kts | 289° |
| 2026-04-17 17:41 | 27.93682 | -85.43195 | 43150 ft | 451 kts | 290° |
| 2026-04-17 17:41 | 27.95704 | -85.49890 | 43151 ft | 450 kts | 289° |
| 2026-04-17 17:42 | 27.97724 | -85.56593 | 43151 ft | 450 kts | 289° |
| 2026-04-17 17:42 | 27.99740 | -85.63293 | 43152 ft | 450 kts | 289° |
| 2026-04-17 17:43 | 28.01731 | -85.69928 | 43146 ft | 447 kts | 289° |
| 2026-04-17 17:43 | 28.03730 | -85.76597 | 43142 ft | 448 kts | 289° |
| 2026-04-17 17:44 | 28.05727 | -85.83276 | 43144 ft | 448 kts | 289° |
| 2026-04-17 17:44 | 28.07722 | -85.89958 | 43146 ft | 448 kts | 289° |
| 2026-04-17 17:45 | 28.09713 | -85.96645 | 43148 ft | 448 kts | 289° |
| 2026-04-17 17:45 | 28.11701 | -86.03333 | 43148 ft | 448 kts | 289° |
| 2026-04-17 17:46 | 28.13686 | -86.10023 | 43151 ft | 448 kts | 289° |
| 2026-04-17 17:46 | 28.15347 | -86.15634 | 43151 ft | 448 kts | 289° |
| 2026-04-17 17:47 | 28.17323 | -86.22320 | 43154 ft | 447 kts | 289° |
| 2026-04-17 17:47 | 28.19282 | -86.28958 | 43154 ft | 447 kts | 289° |
| 2026-04-17 17:48 | 28.21249 | -86.35641 | 43149 ft | 447 kts | 289° |
| 2026-04-17 17:48 | 28.23214 | -86.42329 | 43147 ft | 447 kts | 289° |
| 2026-04-17 17:49 | 28.25175 | -86.49019 | 43151 ft | 447 kts | 289° |
| 2026-04-17 17:49 | 28.27132 | -86.55706 | 43151 ft | 447 kts | 289° |
| 2026-04-17 17:50 | 28.29084 | -86.62390 | 43144 ft | 446 kts | 289° |
| 2026-04-17 17:50 | 28.31032 | -86.69076 | 43142 ft | 446 kts | 289° |
| 2026-04-17 17:51 | 28.32988 | -86.75764 | 43143 ft | 447 kts | 289° |
| 2026-04-17 17:51 | 28.34945 | -86.82432 | 43147 ft | 444 kts | 289° |
| 2026-04-17 17:52 | 28.36890 | -86.89095 | 43139 ft | 445 kts | 289° |
| 2026-04-17 17:52 | 28.38837 | -86.95765 | 43143 ft | 445 kts | 289° |
| 2026-04-17 17:53 | 28.40771 | -87.02414 | 43140 ft | 444 kts | 289° |
| 2026-04-17 17:53 | 28.42706 | -87.09074 | 43137 ft | 444 kts | 289° |
| 2026-04-17 17:54 | 28.44637 | -87.15735 | 43133 ft | 444 kts | 289° |
| 2026-04-17 17:54 | 28.46551 | -87.22354 | 43138 ft | 444 kts | 289° |
| 2026-04-17 17:55 | 28.48476 | -87.29020 | 43145 ft | 444 kts | 289° |
| 2026-04-17 17:55 | 28.50397 | -87.35686 | 43134 ft | 443 kts | 288° |
| 2026-04-17 17:56 | 28.52311 | -87.42344 | 43141 ft | 443 kts | 288° |
| 2026-04-17 17:56 | 28.54225 | -87.49015 | 43141 ft | 443 kts | 288° |
| 2026-04-17 17:57 | 28.56136 | -87.55689 | 43145 ft | 444 kts | 288° |
| 2026-04-17 17:57 | 28.58043 | -87.62363 | 43148 ft | 444 kts | 288° |
| 2026-04-17 17:58 | 28.59946 | -87.69038 | 43144 ft | 444 kts | 288° |
| 2026-04-17 17:58 | 28.61846 | -87.75714 | 43128 ft | 444 kts | 288° |
| 2026-04-17 17:59 | 28.63745 | -87.82402 | 43133 ft | 444 kts | 288° |
| 2026-04-17 17:59 | 28.65637 | -87.89080 | 43139 ft | 442 kts | 288° |
| 2026-04-17 18:00 | 28.67519 | -87.95735 | 43138 ft | 441 kts | 288° |
| 2026-04-17 18:00 | 28.69396 | -88.02390 | 43138 ft | 442 kts | 288° |
| 2026-04-17 18:01 | 28.71272 | -88.09052 | 43139 ft | 442 kts | 288° |
| 2026-04-17 18:01 | 28.73146 | -88.15720 | 43133 ft | 442 kts | 288° |
| 2026-04-17 18:02 | 28.75019 | -88.22401 | 43129 ft | 442 kts | 288° |
| 2026-04-17 18:02 | 28.76885 | -88.29073 | 43129 ft | 442 kts | 288° |
| 2026-04-17 18:03 | 28.78751 | -88.35758 | 43127 ft | 442 kts | 288° |
| 2026-04-17 18:03 | 28.80613 | -88.42442 | 43127 ft | 442 kts | 288° |
| 2026-04-17 18:04 | 28.82472 | -88.49126 | 43133 ft | 443 kts | 287° |
| 2026-04-17 18:04 | 28.84331 | -88.55829 | 43133 ft | 443 kts | 287° |
| 2026-04-17 18:05 | 28.86172 | -88.62480 | 43133 ft | 443 kts | 287° |
| 2026-04-17 18:05 | 28.88023 | -88.69183 | 43134 ft | 443 kts | 287° |
| 2026-04-17 18:06 | 28.89532 | -88.76001 | 43133 ft | 444 kts | 284° |
| 2026-04-17 18:06 | 28.91008 | -88.82833 | 43138 ft | 443 kts | 284° |
| 2026-04-17 18:07 | 28.92456 | -88.89677 | 43140 ft | 443 kts | 284° |
| 2026-04-17 18:07 | 28.93910 | -88.96506 | 43140 ft | 443 kts | 284° |
| 2026-04-17 18:08 | 28.95357 | -89.03350 | 43149 ft | 443 kts | 284° |
| 2026-04-17 18:08 | 28.96799 | -89.10172 | 43137 ft | 442 kts | 284° |
| 2026-04-17 18:09 | 28.98237 | -89.17000 | 43135 ft | 442 kts | 284° |
| 2026-04-17 18:09 | 28.99672 | -89.23831 | 43129 ft | 442 kts | 283° |
| 2026-04-17 18:10 | 29.01103 | -89.30662 | 43134 ft | 442 kts | 283° |
| 2026-04-17 18:10 | 29.02529 | -89.37489 | 43134 ft | 442 kts | 283° |
| 2026-04-17 18:11 | 29.03955 | -89.44330 | 43132 ft | 442 kts | 283° |
| 2026-04-17 18:11 | 29.05376 | -89.51167 | 43131 ft | 442 kts | 283° |
| 2026-04-17 18:12 | 29.06794 | -89.58013 | 43128 ft | 442 kts | 283° |
| 2026-04-17 18:12 | 29.08208 | -89.64851 | 43128 ft | 442 kts | 283° |
| 2026-04-17 18:13 | 29.09618 | -89.71694 | 43129 ft | 442 kts | 283° |
| 2026-04-17 18:13 | 29.11016 | -89.78494 | 43130 ft | 442 kts | 283° |
| 2026-04-17 18:14 | 29.12428 | -89.85382 | 43128 ft | 442 kts | 283° |
| 2026-04-17 18:14 | 29.13819 | -89.92187 | 43131 ft | 442 kts | 283° |
| 2026-04-17 18:15 | 29.15215 | -89.99035 | 43135 ft | 442 kts | 283° |
| 2026-04-17 18:15 | 29.16608 | -90.05885 | 43136 ft | 442 kts | 283° |
| 2026-04-17 18:16 | 29.17931 | -90.12751 | 43139 ft | 442 kts | 281° |
| 2026-04-17 18:16 | 29.19089 | -90.19660 | 43141 ft | 442 kts | 281° |
| 2026-04-17 18:17 | 29.20263 | -90.26560 | 43144 ft | 442 kts | 281° |
| 2026-04-17 18:17 | 29.22004 | -90.36920 | 43143 ft | 442 kts | 281° |
| 2026-04-17 18:18 | 29.23163 | -90.43828 | 43135 ft | 441 kts | 281° |
| 2026-04-17 18:18 | 29.24318 | -90.50740 | 43131 ft | 442 kts | 281° |
| 2026-04-17 18:19 | 29.25468 | -90.57645 | 43132 ft | 440 kts | 281° |
| 2026-04-17 18:19 | 29.26612 | -90.64536 | 43130 ft | 441 kts | 281° |
| 2026-04-17 18:20 | 29.27753 | -90.71437 | 43128 ft | 441 kts | 281° |
| 2026-04-17 18:20 | 29.28892 | -90.78343 | 43136 ft | 441 kts | 281° |
| 2026-04-17 18:21 | 29.30025 | -90.85240 | 43129 ft | 441 kts | 280° |
| 2026-04-17 18:21 | 29.31154 | -90.92135 | 43127 ft | 441 kts | 280° |
| 2026-04-17 18:22 | 29.32282 | -90.99041 | 43128 ft | 441 kts | 280° |
| 2026-04-17 18:22 | 29.33398 | -91.05902 | 43128 ft | 441 kts | 280° |
| 2026-04-17 18:23 | 29.34518 | -91.12808 | 43130 ft | 441 kts | 280° |
| 2026-04-17 18:23 | 29.35633 | -91.19712 | 43124 ft | 440 kts | 280° |
| 2026-04-17 18:24 | 29.36744 | -91.26611 | 43126 ft | 440 kts | 280° |
| 2026-04-17 18:24 | 29.37852 | -91.33513 | 43127 ft | 440 kts | 280° |
| 2026-04-17 18:25 | 29.38957 | -91.40420 | 43123 ft | 440 kts | 280° |
| 2026-04-17 18:25 | 29.40057 | -91.47327 | 43124 ft | 440 kts | 280° |
| 2026-04-17 18:26 | 29.41154 | -91.54230 | 43137 ft | 440 kts | 280° |
| 2026-04-17 18:26 | 29.42244 | -91.61118 | 43131 ft | 439 kts | 279° |
| 2026-04-17 18:27 | 29.43332 | -91.68015 | 43126 ft | 439 kts | 279° |
| 2026-04-17 18:27 | 29.44416 | -91.74913 | 43121 ft | 439 kts | 279° |
| 2026-04-17 18:28 | 29.45496 | -91.81804 | 43118 ft | 439 kts | 279° |
| 2026-04-17 18:28 | 29.46573 | -91.88703 | 43114 ft | 439 kts | 279° |
| 2026-04-17 18:29 | 29.47644 | -91.95594 | 43109 ft | 438 kts | 279° |
| 2026-04-17 18:29 | 29.48712 | -92.02479 | 43107 ft | 438 kts | 279° |
| 2026-04-17 18:30 | 29.49775 | -92.09366 | 43103 ft | 438 kts | 279° |
| 2026-04-17 18:30 | 29.50835 | -92.16254 | 43103 ft | 438 kts | 279° |
| 2026-04-17 18:31 | 29.51892 | -92.23141 | 43101 ft | 438 kts | 279° |
| 2026-04-17 18:31 | 29.52935 | -92.29968 | 43102 ft | 436 kts | 279° |
| 2026-04-17 18:32 | 29.53979 | -92.36826 | 43100 ft | 436 kts | 279° |
| 2026-04-17 18:32 | 29.55019 | -92.43682 | 43101 ft | 436 kts | 279° |
| 2026-04-17 18:33 | 29.56057 | -92.50546 | 43105 ft | 436 kts | 279° |
| 2026-04-17 18:33 | 29.57090 | -92.57407 | 43106 ft | 436 kts | 279° |
| 2026-04-17 18:34 | 29.58120 | -92.64267 | 43108 ft | 436 kts | 279° |
| 2026-04-17 18:34 | 29.59145 | -92.71121 | 43102 ft | 434 kts | 278° |
| 2026-04-17 18:35 | 29.59992 | -92.76807 | 43102 ft | 435 kts | 278° |
| 2026-04-17 18:35 | 29.61009 | -92.83649 | 43103 ft | 434 kts | 278° |
| 2026-04-17 18:36 | 29.62022 | -92.90493 | 43101 ft | 434 kts | 278° |
| 2026-04-17 18:36 | 29.63031 | -92.97343 | 43101 ft | 434 kts | 278° |
| 2026-04-17 18:37 | 29.64036 | -93.04188 | 43104 ft | 435 kts | 278° |
| 2026-04-17 18:37 | 29.65035 | -93.11020 | 43092 ft | 432 kts | 278° |
| 2026-04-17 18:38 | 29.66029 | -93.17841 | 43090 ft | 432 kts | 278° |
| 2026-04-17 18:38 | 29.67020 | -93.24662 | 43088 ft | 433 kts | 278° |
| 2026-04-17 18:39 | 29.68008 | -93.31491 | 43091 ft | 433 kts | 278° |
| 2026-04-17 18:39 | 29.68991 | -93.38317 | 43087 ft | 433 kts | 278° |
| 2026-04-17 18:40 | 29.69973 | -93.45153 | 43092 ft | 433 kts | 278° |
| 2026-04-17 18:40 | 29.70950 | -93.51987 | 43085 ft | 433 kts | 278° |
| 2026-04-17 18:41 | 29.71924 | -93.58823 | 43086 ft | 433 kts | 278° |
| 2026-04-17 18:41 | 29.72894 | -93.65658 | 43087 ft | 433 kts | 278° |
| 2026-04-17 18:42 | 29.73860 | -93.72488 | 43085 ft | 433 kts | 278° |
| 2026-04-17 18:42 | 29.74824 | -93.79330 | 43080 ft | 433 kts | 278° |
| 2026-04-17 18:43 | 29.75782 | -93.86156 | 43070 ft | 432 kts | 278° |
| 2026-04-17 18:43 | 29.76729 | -93.92939 | 43070 ft | 432 kts | 278° |
| 2026-04-17 18:44 | 29.77681 | -93.99768 | 43070 ft | 431 kts | 278° |
| 2026-04-17 18:44 | 29.78626 | -94.06589 | 43071 ft | 432 kts | 277° |
| 2026-04-17 18:45 | 29.79569 | -94.13413 | 43068 ft | 432 kts | 277° |
| 2026-04-17 18:45 | 29.80509 | -94.20239 | 43076 ft | 432 kts | 277° |
| 2026-04-17 18:46 | 29.81443 | -94.27056 | 43062 ft | 431 kts | 277° |
| 2026-04-17 18:46 | 29.82374 | -94.33872 | 43056 ft | 431 kts | 277° |
| 2026-04-17 18:47 | 29.83302 | -94.40693 | 43059 ft | 431 kts | 277° |
| 2026-04-17 18:47 | 29.84225 | -94.47512 | 43055 ft | 431 kts | 277° |
| 2026-04-17 18:48 | 29.85146 | -94.54338 | 43051 ft | 431 kts | 277° |
| 2026-04-17 18:48 | 29.86063 | -94.61161 | 43057 ft | 431 kts | 277° |
| 2026-04-17 18:49 | 29.86976 | -94.67988 | 43053 ft | 431 kts | 277° |
| 2026-04-17 18:49 | 29.87885 | -94.74812 | 43047 ft | 431 kts | 277° |
| 2026-04-17 18:50 | 29.88792 | -94.81638 | 43043 ft | 431 kts | 277° |
| 2026-04-17 18:50 | 29.89694 | -94.88467 | 43041 ft | 431 kts | 277° |
| 2026-04-17 18:51 | 29.90594 | -94.95300 | 43043 ft | 431 kts | 277° |
| 2026-04-17 18:51 | 29.91489 | -95.02129 | 43031 ft | 431 kts | 276° |
| 2026-04-17 18:52 | 29.92381 | -95.08957 | 43023 ft | 431 kts | 276° |
| 2026-04-17 18:52 | 29.93269 | -95.15790 | 43025 ft | 431 kts | 276° |
| 2026-04-17 18:53 | 29.94154 | -95.22624 | 43018 ft | 431 kts | 276° |
| 2026-04-17 18:53 | 29.95035 | -95.29456 | 43022 ft | 431 kts | 276° |
| 2026-04-17 18:54 | 29.95962 | -95.36283 | 43018 ft | 431 kts | 278° |
| 2026-04-17 18:54 | 29.97061 | -95.43037 | 43016 ft | 431 kts | 278° |
| 2026-04-17 18:55 | 29.98144 | -95.49839 | 43019 ft | 431 kts | 278° |
| 2026-04-17 18:55 | 29.99235 | -95.56639 | 43020 ft | 431 kts | 278° |
| 2026-04-17 18:56 | 30.00318 | -95.63446 | 43006 ft | 431 kts | 277° |
| 2026-04-17 18:56 | 30.01397 | -95.70235 | 42976 ft | 431 kts | 277° |
| 2026-04-17 18:57 | 30.02480 | -95.77081 | 42971 ft | 429 kts | 277° |
| 2026-04-17 18:57 | 30.03549 | -95.83865 | 42939 ft | 430 kts | 277° |
| 2026-04-17 18:58 | 30.04611 | -95.90624 | 42932 ft | 432 kts | 277° |
| 2026-04-17 18:58 | 30.05676 | -95.97425 | 42891 ft | 431 kts | 277° |
| 2026-04-17 18:59 | 30.06737 | -96.04225 | 42866 ft | 431 kts | 277° |
| 2026-04-17 18:59 | 30.07796 | -96.11036 | 42824 ft | 431 kts | 277° |
| 2026-04-17 19:00 | 30.08847 | -96.17822 | 42798 ft | 429 kts | 277° |
| 2026-04-17 19:00 | 30.09896 | -96.24611 | 42796 ft | 429 kts | 277° |
| 2026-04-17 19:01 | 30.10940 | -96.31403 | 42794 ft | 430 kts | 277° |
| 2026-04-17 19:01 | 30.11983 | -96.38200 | 42797 ft | 430 kts | 277° |
| 2026-04-17 19:02 | 30.13022 | -96.45004 | 42800 ft | 430 kts | 277° |
| 2026-04-17 19:02 | 30.14056 | -96.51795 | 42806 ft | 429 kts | 276° |
| 2026-04-17 19:03 | 30.15086 | -96.58587 | 42830 ft | 429 kts | 276° |
| 2026-04-17 19:03 | 30.16112 | -96.65375 | 42875 ft | 429 kts | 276° |
| 2026-04-17 19:04 | 30.17135 | -96.72170 | 42928 ft | 429 kts | 276° |
| 2026-04-17 19:04 | 30.18153 | -96.78960 | 42963 ft | 429 kts | 276° |
| 2026-04-17 19:05 | 30.19169 | -96.85755 | 43008 ft | 428 kts | 276° |
| 2026-04-17 19:05 | 30.20175 | -96.92506 | 43006 ft | 426 kts | 276° |
| 2026-04-17 19:06 | 30.21177 | -96.99268 | 42999 ft | 427 kts | 276° |
| 2026-04-17 19:06 | 30.22167 | -97.05953 | 42998 ft | 423 kts | 276° |
| 2026-04-17 19:07 | 30.23161 | -97.12717 | 42976 ft | 424 kts | 276° |
| 2026-04-17 19:07 | 30.24143 | -97.19395 | 42907 ft | 424 kts | 276° |
| 2026-04-17 19:08 | 30.25125 | -97.26123 | 42909 ft | 424 kts | 276° |
| 2026-04-17 19:08 | 30.26106 | -97.32852 | 42927 ft | 424 kts | 276° |
| 2026-04-17 19:09 | 30.27082 | -97.39581 | 42926 ft | 424 kts | 276° |
| 2026-04-17 19:09 | 30.28055 | -97.46311 | 42928 ft | 424 kts | 276° |
| 2026-04-17 19:10 | 30.29024 | -97.53046 | 42927 ft | 424 kts | 276° |
| 2026-04-17 19:10 | 30.29991 | -97.59784 | 42944 ft | 424 kts | 275° |
| 2026-04-17 19:11 | 30.30950 | -97.66488 | 42948 ft | 422 kts | 275° |
| 2026-04-17 19:11 | 30.31905 | -97.73202 | 42962 ft | 422 kts | 275° |
| 2026-04-17 19:12 | 30.32858 | -97.79912 | 42969 ft | 422 kts | 275° |
| 2026-04-17 19:12 | 30.33805 | -97.86622 | 42979 ft | 422 kts | 275° |
| 2026-04-17 19:13 | 30.34750 | -97.93327 | 42986 ft | 422 kts | 275° |
| 2026-04-17 19:13 | 30.35689 | -98.00029 | 42991 ft | 422 kts | 275° |
| 2026-04-17 19:14 | 30.36627 | -98.06739 | 42987 ft | 422 kts | 275° |
| 2026-04-17 19:14 | 30.37561 | -98.13456 | 42981 ft | 422 kts | 275° |
| 2026-04-17 19:15 | 30.38493 | -98.20171 | 42954 ft | 422 kts | 275° |
| 2026-04-17 19:15 | 30.39420 | -98.26888 | 42960 ft | 423 kts | 275° |
| 2026-04-17 19:16 | 30.40345 | -98.33609 | 42962 ft | 422 kts | 275° |
| 2026-04-17 19:16 | 30.41265 | -98.40328 | 42960 ft | 422 kts | 274° |
| 2026-04-17 19:17 | 30.42181 | -98.47039 | 42917 ft | 422 kts | 274° |
| 2026-04-17 19:17 | 30.43094 | -98.53759 | 42909 ft | 422 kts | 274° |
| 2026-04-17 19:18 | 30.44004 | -98.60482 | 42915 ft | 423 kts | 274° |
| 2026-04-17 19:18 | 30.44906 | -98.67164 | 42916 ft | 422 kts | 274° |
| 2026-04-17 19:19 | 30.45809 | -98.73886 | 42906 ft | 421 kts | 274° |
| 2026-04-17 19:19 | 30.46706 | -98.80595 | 42898 ft | 421 kts | 274° |
| 2026-04-17 19:20 | 30.47600 | -98.87305 | 42898 ft | 421 kts | 274° |
| 2026-04-17 19:20 | 30.48490 | -98.94011 | 42896 ft | 421 kts | 274° |
| 2026-04-17 19:21 | 30.48934 | -98.97363 | 43309 ft | 414 kts | 274° |
| 2026-04-17 19:21 | 30.49221 | -98.99494 | 44291 ft | 395 kts | 274° |
| 2026-04-17 19:21 | 30.49633 | -99.02567 | 45493 ft | 370 kts | 274° |
| 2026-04-17 19:21 | 30.50012 | -99.05495 | 45782 ft | 368 kts | 273° |
| 2026-04-17 19:22 | 30.50387 | -99.08437 | 45939 ft | 369 kts | 273° |
| 2026-04-17 19:22 | 30.50774 | -99.11376 | 46169 ft | 368 kts | 273° |
| 2026-04-17 19:22 | 30.51159 | -99.14266 | 46390 ft | 367 kts | 273° |
| 2026-04-17 19:22 | 30.51546 | -99.17230 | 46585 ft | 367 kts | 273° |
| 2026-04-17 19:23 | 30.51926 | -99.20160 | 46760 ft | 367 kts | 273° |
| 2026-04-17 19:23 | 30.52685 | -99.26002 | 46877 ft | 373 kts | 273° |
| 2026-04-17 19:24 | 30.53464 | -99.32015 | 46894 ft | 381 kts | 273° |
| 2026-04-17 19:24 | 30.54259 | -99.38162 | 46898 ft | 389 kts | 273° |
| 2026-04-17 19:25 | 30.55066 | -99.44434 | 46907 ft | 397 kts | 273° |
| 2026-04-17 19:25 | 30.55884 | -99.50823 | 46917 ft | 404 kts | 273° |
| 2026-04-17 19:26 | 30.56715 | -99.57332 | 46939 ft | 411 kts | 273° |
| 2026-04-17 19:26 | 30.57556 | -99.63944 | 46953 ft | 417 kts | 273° |
| 2026-04-17 19:27 | 30.58406 | -99.70658 | 46964 ft | 423 kts | 273° |
| 2026-04-17 19:27 | 30.59260 | -99.77424 | 46965 ft | 424 kts | 273° |
| 2026-04-17 19:28 | 30.60108 | -99.84182 | 46967 ft | 424 kts | 273° |
| 2026-04-17 19:28 | 30.60949 | -99.90978 | 46929 ft | 425 kts | 273° |
| 2026-04-17 19:29 | 30.61791 | -99.97773 | 46912 ft | 425 kts | 273° |
| 2026-04-17 19:29 | 30.62625 | -100.04561 | 46906 ft | 425 kts | 273° |
| 2026-04-17 19:30 | 30.63458 | -100.11353 | 46879 ft | 425 kts | 273° |
| 2026-04-17 19:30 | 30.64286 | -100.18143 | 46870 ft | 425 kts | 273° |
| 2026-04-17 19:31 | 30.65112 | -100.24947 | 46872 ft | 428 kts | 272° |
| 2026-04-17 19:31 | 30.65940 | -100.31789 | 46911 ft | 427 kts | 272° |
| 2026-04-17 19:32 | 30.66763 | -100.38623 | 46930 ft | 427 kts | 272° |
| 2026-04-17 19:32 | 30.67576 | -100.45414 | 46949 ft | 427 kts | 272° |
| 2026-04-17 19:33 | 30.68392 | -100.52253 | 46966 ft | 427 kts | 272° |
| 2026-04-17 19:33 | 30.69204 | -100.59091 | 46980 ft | 428 kts | 272° |
| 2026-04-17 19:34 | 30.70018 | -100.65974 | 46987 ft | 430 kts | 272° |
| 2026-04-17 19:34 | 30.70826 | -100.72842 | 46975 ft | 429 kts | 272° |
| 2026-04-17 19:35 | 30.71631 | -100.79714 | 46948 ft | 429 kts | 272° |
| 2026-04-17 19:35 | 30.72432 | -100.86586 | 46925 ft | 429 kts | 272° |
| 2026-04-17 19:36 | 30.73229 | -100.93457 | 46904 ft | 429 kts | 272° |
| 2026-04-17 19:36 | 30.74024 | -101.00336 | 46921 ft | 429 kts | 272° |
| 2026-04-17 19:37 | 30.74815 | -101.07216 | 46939 ft | 429 kts | 272° |
| 2026-04-17 19:37 | 30.75602 | -101.14093 | 46948 ft | 429 kts | 272° |
| 2026-04-17 19:38 | 30.76385 | -101.20962 | 46952 ft | 427 kts | 272° |
| 2026-04-17 19:38 | 30.77158 | -101.27795 | 46864 ft | 427 kts | 272° |
| 2026-04-17 19:39 | 30.77932 | -101.34644 | 46860 ft | 426 kts | 272° |
| 2026-04-17 19:39 | 30.78698 | -101.41480 | 46857 ft | 426 kts | 271° |
| 2026-04-17 19:40 | 30.79462 | -101.48318 | 46844 ft | 426 kts | 271° |
| 2026-04-17 19:40 | 30.80218 | -101.55115 | 46847 ft | 426 kts | 271° |
| 2026-04-17 19:41 | 30.80975 | -101.61957 | 46836 ft | 426 kts | 271° |
| 2026-04-17 19:41 | 30.81727 | -101.68796 | 46838 ft | 427 kts | 271° |
| 2026-04-17 19:42 | 30.82482 | -101.75695 | 46835 ft | 432 kts | 271° |
| 2026-04-17 19:42 | 30.83243 | -101.82655 | 46840 ft | 431 kts | 271° |
| 2026-04-17 19:43 | 30.83987 | -101.89529 | 46839 ft | 431 kts | 271° |
| 2026-04-17 19:43 | 30.84735 | -101.96462 | 46824 ft | 431 kts | 271° |
| 2026-04-17 19:44 | 30.85478 | -102.03383 | 46824 ft | 431 kts | 271° |
| 2026-04-17 19:44 | 30.86220 | -102.10342 | 46808 ft | 436 kts | 271° |
| 2026-04-17 19:45 | 30.86969 | -102.17371 | 46810 ft | 438 kts | 271° |
| 2026-04-17 19:45 | 30.87711 | -102.24400 | 46804 ft | 437 kts | 271° |
| 2026-04-17 19:46 | 30.88450 | -102.31432 | 46806 ft | 438 kts | 271° |
| 2026-04-17 19:46 | 30.89185 | -102.38463 | 46795 ft | 438 kts | 271° |
| 2026-04-17 19:47 | 30.89918 | -102.45520 | 46792 ft | 441 kts | 271° |
| 2026-04-17 19:47 | 30.90652 | -102.52593 | 46801 ft | 440 kts | 271° |
| 2026-04-17 19:48 | 30.91377 | -102.59625 | 46827 ft | 432 kts | 271° |
| 2026-04-17 19:48 | 30.92084 | -102.66565 | 46852 ft | 433 kts | 271° |
| 2026-04-17 19:49 | 30.92796 | -102.73545 | 46891 ft | 434 kts | 271° |
| 2026-04-17 19:49 | 30.93500 | -102.80505 | 46924 ft | 433 kts | 271° |
| 2026-04-17 19:49 | 30.93850 | -102.83983 | 46769 ft | 432 kts | 271° |
| 2026-04-17 19:50 | 30.94196 | -102.87414 | 46769 ft | 433 kts | 271° |
| 2026-04-17 19:50 | 30.94893 | -102.94375 | 46769 ft | 433 kts | 271° |
| 2026-04-17 19:51 | 30.96233 | -103.01278 | 46760 ft | 443 kts | 281° |
| 2026-04-17 19:51 | 30.98125 | -103.08101 | 46767 ft | 442 kts | 280° |
| 2026-04-17 19:52 | 30.99994 | -103.14927 | 46773 ft | 442 kts | 280° |
| 2026-04-17 19:52 | 31.01867 | -103.21716 | 46773 ft | 439 kts | 280° |
| 2026-04-17 19:53 | 31.03724 | -103.28518 | 46774 ft | 440 kts | 280° |
| 2026-04-17 19:53 | 31.05585 | -103.35311 | 46788 ft | 440 kts | 280° |
| 2026-04-17 19:54 | 31.07438 | -103.42114 | 46800 ft | 440 kts | 280° |
| 2026-04-17 19:54 | 31.09290 | -103.48917 | 46817 ft | 441 kts | 279° |
| 2026-04-17 19:55 | 31.11132 | -103.55692 | 46824 ft | 436 kts | 279° |
| 2026-04-17 19:55 | 31.12961 | -103.62464 | 46820 ft | 439 kts | 279° |
| 2026-04-17 19:56 | 31.14796 | -103.69238 | 46821 ft | 438 kts | 279° |
| 2026-04-17 19:56 | 31.16622 | -103.76021 | 46806 ft | 438 kts | 279° |
| 2026-04-17 19:57 | 31.18446 | -103.82799 | 46816 ft | 438 kts | 279° |
| 2026-04-17 19:57 | 31.20267 | -103.89591 | 46803 ft | 440 kts | 279° |
| 2026-04-17 19:58 | 31.22101 | -103.96433 | 46807 ft | 441 kts | 279° |
| 2026-04-17 19:58 | 31.23926 | -104.03268 | 46807 ft | 440 kts | 279° |
| 2026-04-17 19:59 | 31.25745 | -104.10098 | 46815 ft | 440 kts | 279° |
| 2026-04-17 19:59 | 31.27563 | -104.16935 | 46815 ft | 440 kts | 279° |
| 2026-04-17 20:00 | 31.29378 | -104.23785 | 46811 ft | 443 kts | 278° |
| 2026-04-17 20:00 | 31.31201 | -104.30675 | 46814 ft | 448 kts | 278° |
| 2026-04-17 20:01 | 31.33039 | -104.37630 | 46806 ft | 448 kts | 278° |
| 2026-04-17 20:01 | 31.34869 | -104.44589 | 46805 ft | 447 kts | 278° |
| 2026-04-17 20:02 | 31.36697 | -104.51546 | 46795 ft | 448 kts | 278° |
| 2026-04-17 20:02 | 31.38522 | -104.58512 | 46798 ft | 448 kts | 278° |
| 2026-04-17 20:03 | 31.40343 | -104.65479 | 46803 ft | 447 kts | 278° |
| 2026-04-17 20:03 | 31.42158 | -104.72443 | 46803 ft | 447 kts | 278° |
| 2026-04-17 20:04 | 31.43970 | -104.79409 | 46794 ft | 447 kts | 278° |
| 2026-04-17 20:04 | 31.45778 | -104.86377 | 46793 ft | 447 kts | 278° |
| 2026-04-17 20:05 | 31.47586 | -104.93364 | 46821 ft | 449 kts | 278° |
| 2026-04-17 20:05 | 31.49396 | -105.00384 | 46801 ft | 451 kts | 278° |
| 2026-04-17 20:06 | 31.51209 | -105.07417 | 46791 ft | 451 kts | 278° |
| 2026-04-17 20:06 | 31.53017 | -105.14459 | 46791 ft | 451 kts | 278° |
| 2026-04-17 20:07 | 31.54823 | -105.21506 | 46791 ft | 451 kts | 278° |
| 2026-04-17 20:07 | 31.56622 | -105.28548 | 46790 ft | 451 kts | 278° |
| 2026-04-17 20:08 | 31.58122 | -105.34440 | 46773 ft | 456 kts | 278° |
| 2026-04-17 20:08 | 31.59937 | -105.41560 | 46774 ft | 455 kts | 278° |
| 2026-04-17 20:09 | 31.61739 | -105.48675 | 46777 ft | 455 kts | 278° |
| 2026-04-17 20:09 | 31.63541 | -105.55790 | 46778 ft | 455 kts | 278° |
| 2026-04-17 20:10 | 31.65335 | -105.62906 | 46788 ft | 456 kts | 277° |
| 2026-04-17 20:10 | 31.67138 | -105.70070 | 46776 ft | 458 kts | 277° |
| 2026-04-17 20:11 | 31.68939 | -105.77240 | 46774 ft | 458 kts | 277° |
| 2026-04-17 20:11 | 31.70732 | -105.84406 | 46774 ft | 458 kts | 277° |
| 2026-04-17 20:12 | 31.72524 | -105.91578 | 46777 ft | 458 kts | 277° |
| 2026-04-17 20:12 | 31.74312 | -105.98757 | 46787 ft | 457 kts | 277° |
| 2026-04-17 20:13 | 31.76094 | -106.05928 | 46835 ft | 456 kts | 277° |
| 2026-04-17 20:13 | 31.77865 | -106.13088 | 46880 ft | 457 kts | 277° |
| 2026-04-17 20:14 | 31.79639 | -106.20257 | 46946 ft | 457 kts | 277° |
| 2026-04-17 20:14 | 31.82025 | -106.27290 | 46967 ft | 473 kts | 288° |
| 2026-04-17 20:15 | 31.85840 | -106.33753 | 46977 ft | 491 kts | 301° |
| 2026-04-17 20:15 | 31.90426 | -106.39743 | 46988 ft | 494 kts | 302° |
| 2026-04-17 20:16 | 31.94996 | -106.45764 | 46968 ft | 493 kts | 302° |
| 2026-04-17 20:16 | 31.99590 | -106.51793 | 46915 ft | 495 kts | 302° |
| 2026-04-17 20:17 | 32.04163 | -106.57815 | 46925 ft | 492 kts | 301° |
| 2026-04-17 20:17 | 32.08720 | -106.63828 | 46917 ft | 490 kts | 302° |
| 2026-04-17 20:18 | 32.13263 | -106.69831 | 46887 ft | 491 kts | 302° |
| 2026-04-17 20:18 | 32.17813 | -106.75851 | 46851 ft | 491 kts | 302° |
| 2026-04-17 20:19 | 32.22312 | -106.81814 | 46814 ft | 490 kts | 302° |
| 2026-04-17 20:19 | 32.26852 | -106.87842 | 47033 ft | 491 kts | 302° |
| 2026-04-17 20:20 | 32.31387 | -106.93871 | 47034 ft | 491 kts | 302° |
| 2026-04-17 20:20 | 32.35922 | -106.99913 | 46808 ft | 491 kts | 302° |
| 2026-04-17 20:21 | 32.40451 | -107.05953 | 46811 ft | 491 kts | 302° |
| 2026-04-17 20:21 | 32.44988 | -107.12017 | 46812 ft | 492 kts | 302° |
| 2026-04-17 20:22 | 32.49524 | -107.18087 | 46853 ft | 492 kts | 302° |
| 2026-04-17 20:22 | 32.54041 | -107.24139 | 46800 ft | 488 kts | 302° |
| 2026-04-17 20:23 | 32.58534 | -107.30185 | 46799 ft | 491 kts | 302° |
| 2026-04-17 20:23 | 32.63055 | -107.36252 | 46808 ft | 490 kts | 302° |
| 2026-04-17 20:24 | 32.67559 | -107.42329 | 46811 ft | 492 kts | 302° |
| 2026-04-17 20:24 | 32.72085 | -107.48431 | 46847 ft | 491 kts | 302° |
| 2026-04-17 20:25 | 32.76582 | -107.54512 | 46820 ft | 490 kts | 302° |
| 2026-04-17 20:25 | 32.81080 | -107.60605 | 46846 ft | 490 kts | 302° |
| 2026-04-17 20:26 | 32.85576 | -107.66699 | 46852 ft | 490 kts | 302° |
| 2026-04-17 20:26 | 32.90038 | -107.72764 | 46844 ft | 491 kts | 301° |
| 2026-04-17 20:27 | 32.94542 | -107.78897 | 46866 ft | 492 kts | 302° |
| 2026-04-17 20:27 | 32.99044 | -107.85026 | 46855 ft | 492 kts | 302° |
| 2026-04-17 20:28 | 33.03540 | -107.91167 | 46875 ft | 492 kts | 302° |
| 2026-04-17 20:28 | 33.08042 | -107.97325 | 46877 ft | 492 kts | 302° |
| 2026-04-17 20:29 | 33.12534 | -108.03480 | 46880 ft | 492 kts | 302° |
| 2026-04-17 20:29 | 33.17029 | -108.09646 | 46881 ft | 492 kts | 302° |
| 2026-04-17 20:30 | 33.23756 | -108.18894 | 46877 ft | 492 kts | 302° |
| 2026-04-17 20:30 | 33.28290 | -108.25038 | 46884 ft | 493 kts | 303° |
| 2026-04-17 20:31 | 33.32793 | -108.31204 | 46879 ft | 492 kts | 302° |
| 2026-04-17 20:31 | 33.37307 | -108.37369 | 46874 ft | 493 kts | 303° |
| 2026-04-17 20:32 | 33.41806 | -108.43531 | 46878 ft | 492 kts | 303° |
| 2026-04-17 20:32 | 33.46297 | -108.49697 | 46873 ft | 495 kts | 303° |
| 2026-04-17 20:33 | 33.50816 | -108.55901 | 46869 ft | 494 kts | 303° |
| 2026-04-17 20:33 | 33.55325 | -108.62117 | 46869 ft | 494 kts | 303° |
| 2026-04-17 20:34 | 33.59828 | -108.68318 | 46856 ft | 491 kts | 303° |
| 2026-04-17 20:34 | 33.64312 | -108.74523 | 46849 ft | 493 kts | 303° |
| 2026-04-17 20:35 | 33.68811 | -108.80743 | 46845 ft | 496 kts | 303° |
| 2026-04-17 20:35 | 33.73325 | -108.87003 | 46857 ft | 495 kts | 303° |
| 2026-04-17 20:36 | 33.77829 | -108.93260 | 46854 ft | 496 kts | 304° |
| 2026-04-17 20:36 | 33.82317 | -108.99500 | 46865 ft | 493 kts | 304° |
| 2026-04-17 20:37 | 33.86804 | -109.05758 | 46901 ft | 493 kts | 304° |
| 2026-04-17 20:37 | 33.91288 | -109.12015 | 46962 ft | 492 kts | 304° |
| 2026-04-17 20:38 | 33.95770 | -109.18287 | 47042 ft | 495 kts | 304° |
| 2026-04-17 20:38 | 34.00251 | -109.24560 | 47094 ft | 492 kts | 304° |
| 2026-04-17 20:39 | 34.04712 | -109.30827 | 47136 ft | 493 kts | 304° |
| 2026-04-17 20:39 | 34.09181 | -109.37106 | 47132 ft | 493 kts | 304° |
| 2026-04-17 20:40 | 34.13633 | -109.43379 | 47124 ft | 492 kts | 304° |
| 2026-04-17 20:40 | 34.17938 | -109.49764 | 47078 ft | 488 kts | 301° |
| 2026-04-17 20:41 | 34.22022 | -109.56284 | 47029 ft | 487 kts | 301° |
| 2026-04-17 20:41 | 34.26137 | -109.62803 | 46979 ft | 488 kts | 302° |
| 2026-04-17 20:42 | 34.30526 | -109.69113 | 47009 ft | 490 kts | 304° |
| 2026-04-17 20:42 | 34.34907 | -109.75419 | 47048 ft | 490 kts | 304° |
| 2026-04-17 20:43 | 34.39298 | -109.81743 | 47070 ft | 491 kts | 304° |
| 2026-04-17 20:43 | 34.43691 | -109.88082 | 47075 ft | 491 kts | 304° |
| 2026-04-17 20:44 | 34.45882 | -109.91252 | 46950 ft | 491 kts | 304° |
| 2026-04-17 20:44 | 34.48075 | -109.94423 | 46962 ft | 491 kts | 304° |
| 2026-04-17 20:44 | 34.52462 | -110.00775 | 46958 ft | 491 kts | 304° |
| 2026-04-17 20:45 | 34.56840 | -110.07130 | 46969 ft | 491 kts | 304° |
| 2026-04-17 20:45 | 34.61199 | -110.13463 | 46961 ft | 489 kts | 304° |
| 2026-04-17 20:46 | 34.65554 | -110.19809 | 46975 ft | 489 kts | 304° |
| 2026-04-17 20:46 | 34.69910 | -110.26161 | 46985 ft | 489 kts | 304° |
| 2026-04-17 20:47 | 34.74228 | -110.32474 | 46979 ft | 489 kts | 304° |
| 2026-04-17 20:47 | 34.78571 | -110.38830 | 46986 ft | 487 kts | 304° |
| 2026-04-17 20:48 | 34.82898 | -110.45181 | 46984 ft | 488 kts | 304° |
| 2026-04-17 20:48 | 34.87225 | -110.51535 | 46997 ft | 486 kts | 304° |
| 2026-04-17 20:49 | 34.91535 | -110.57884 | 46997 ft | 487 kts | 304° |
| 2026-04-17 20:49 | 34.95845 | -110.64237 | 47158 ft | 486 kts | 304° |
| 2026-04-17 20:50 | 35.00135 | -110.70577 | 47155 ft | 485 kts | 304° |
| 2026-04-17 20:50 | 35.04423 | -110.76939 | 47156 ft | 484 kts | 303° |
| 2026-04-17 20:51 | 35.07815 | -110.83895 | 47151 ft | 470 kts | 290° |
| 2026-04-17 20:51 | 35.10520 | -110.91132 | 47126 ft | 469 kts | 290° |
| 2026-04-17 20:52 | 35.13239 | -110.98381 | 47095 ft | 471 kts | 290° |
| 2026-04-17 20:52 | 35.15959 | -111.05683 | 47042 ft | 471 kts | 290° |
| 2026-04-17 20:53 | 35.18660 | -111.12928 | 47044 ft | 471 kts | 290° |
| 2026-04-17 20:53 | 35.21392 | -111.20288 | 47033 ft | 470 kts | 290° |
| 2026-04-17 20:54 | 35.22705 | -111.23813 | 47035 ft | 454 kts | 290° |
| 2026-04-17 20:54 | 35.23582 | -111.26172 | 47040 ft | 448 kts | 290° |
| 2026-04-17 20:54 | 35.26567 | -111.34276 | 47039 ft | 453 kts | 290° |
| 2026-04-17 20:55 | 35.29171 | -111.41308 | 47043 ft | 454 kts | 290° |
| 2026-04-17 20:55 | 35.31753 | -111.48333 | 47043 ft | 453 kts | 290° |
| 2026-04-17 20:56 | 35.33901 | -111.54171 | 46933 ft | 447 kts | 290° |
| 2026-04-17 20:56 | 35.35178 | -111.57638 | 46503 ft | 435 kts | 290° |
| 2026-04-17 20:56 | 35.36400 | -111.60973 | 46074 ft | 423 kts | 289° |
| 2026-04-17 20:57 | 35.37584 | -111.64216 | 45664 ft | 411 kts | 289° |
| 2026-04-17 20:57 | 35.38742 | -111.67385 | 45256 ft | 405 kts | 289° |
| 2026-04-17 20:57 | 35.39888 | -111.70520 | 44868 ft | 402 kts | 289° |
| 2026-04-17 20:57 | 35.41031 | -111.73657 | 44464 ft | 407 kts | 289° |
| 2026-04-17 20:58 | 35.42191 | -111.76845 | 44100 ft | 412 kts | 289° |
| 2026-04-17 20:58 | 35.43349 | -111.80019 | 43644 ft | 415 kts | 290° |
| 2026-04-17 20:58 | 35.44530 | -111.83260 | 43280 ft | 418 kts | 290° |
| 2026-04-17 20:58 | 35.45513 | -111.86603 | 42847 ft | 416 kts | 282° |
| 2026-04-17 20:59 | 35.46097 | -111.90056 | 42463 ft | 411 kts | 276° |
| 2026-04-17 20:59 | 35.46521 | -111.93525 | 42063 ft | 411 kts | 276° |
| 2026-04-17 20:59 | 35.46964 | -111.96986 | 41677 ft | 411 kts | 277° |
| 2026-04-17 20:59 | 35.47411 | -112.00454 | 41282 ft | 410 kts | 277° |
| 2026-04-17 21:00 | 35.47843 | -112.03907 | 40882 ft | 410 kts | 277° |
| 2026-04-17 21:00 | 35.48271 | -112.07367 | 40483 ft | 410 kts | 277° |
| 2026-04-17 21:00 | 35.48703 | -112.10823 | 40087 ft | 410 kts | 277° |
| 2026-04-17 21:00 | 35.49136 | -112.14275 | 39681 ft | 410 kts | 277° |
| 2026-04-17 21:01 | 35.49568 | -112.17744 | 39285 ft | 412 kts | 277° |
| 2026-04-17 21:01 | 35.49998 | -112.21215 | 38875 ft | 412 kts | 277° |
| 2026-04-17 21:01 | 35.50427 | -112.24687 | 38420 ft | 410 kts | 277° |
| 2026-04-17 21:01 | 35.50855 | -112.28144 | 38005 ft | 409 kts | 277° |
| 2026-04-17 21:02 | 35.51280 | -112.31592 | 37596 ft | 409 kts | 277° |
| 2026-04-17 21:02 | 35.51704 | -112.35051 | 37182 ft | 410 kts | 277° |
| 2026-04-17 21:02 | 35.52129 | -112.38515 | 36769 ft | 410 kts | 277° |
| 2026-04-17 21:02 | 35.52552 | -112.41971 | 36354 ft | 410 kts | 277° |
| 2026-04-17 21:03 | 35.52974 | -112.45426 | 35938 ft | 409 kts | 277° |
| 2026-04-17 21:03 | 35.53394 | -112.48882 | 35523 ft | 408 kts | 278° |
| 2026-04-17 21:03 | 35.53813 | -112.52329 | 35105 ft | 408 kts | 278° |
| 2026-04-17 21:03 | 35.54229 | -112.55770 | 34712 ft | 407 kts | 278° |
| 2026-04-17 21:04 | 35.54645 | -112.59204 | 34313 ft | 406 kts | 278° |
| 2026-04-17 21:04 | 35.55058 | -112.62633 | 33878 ft | 406 kts | 278° |
| 2026-04-17 21:04 | 35.55464 | -112.66015 | 33467 ft | 406 kts | 278° |
| 2026-04-17 21:04 | 35.55877 | -112.69457 | 33066 ft | 408 kts | 278° |
| 2026-04-17 21:05 | 35.56291 | -112.72913 | 32666 ft | 410 kts | 278° |
| 2026-04-17 21:05 | 35.56706 | -112.76387 | 32264 ft | 411 kts | 278° |
| 2026-04-17 21:05 | 35.57121 | -112.79871 | 31844 ft | 414 kts | 278° |
| 2026-04-17 21:05 | 35.57538 | -112.83383 | 31455 ft | 417 kts | 279° |
| 2026-04-17 21:06 | 35.57956 | -112.86920 | 31049 ft | 418 kts | 279° |
| 2026-04-17 21:06 | 35.58375 | -112.90466 | 30640 ft | 421 kts | 279° |
| 2026-04-17 21:06 | 35.58793 | -112.94015 | 30226 ft | 419 kts | 279° |
| 2026-04-17 21:06 | 35.59207 | -112.97541 | 29782 ft | 415 kts | 279° |
| 2026-04-17 21:07 | 35.59617 | -113.01038 | 29372 ft | 413 kts | 279° |
| 2026-04-17 21:07 | 35.60025 | -113.04523 | 28969 ft | 411 kts | 279° |
| 2026-04-17 21:07 | 35.60429 | -113.07987 | 28561 ft | 408 kts | 279° |
| 2026-04-17 21:07 | 35.60781 | -113.11014 | 28202 ft | 407 kts | 279° |
| 2026-04-17 21:08 | 35.61124 | -113.13962 | 27878 ft | 408 kts | 279° |
| 2026-04-17 21:08 | 35.61522 | -113.17402 | 27479 ft | 405 kts | 279° |
| 2026-04-17 21:08 | 35.61916 | -113.20822 | 27082 ft | 403 kts | 279° |
| 2026-04-17 21:08 | 35.62308 | -113.24224 | 26686 ft | 401 kts | 279° |
| 2026-04-17 21:09 | 35.62697 | -113.27605 | 26301 ft | 399 kts | 279° |
| 2026-04-17 21:09 | 35.63083 | -113.30968 | 25907 ft | 396 kts | 279° |
| 2026-04-17 21:09 | 35.63466 | -113.34318 | 25518 ft | 395 kts | 279° |
| 2026-04-17 21:09 | 35.63845 | -113.37649 | 25131 ft | 393 kts | 279° |
| 2026-04-17 21:10 | 35.64223 | -113.40969 | 24754 ft | 391 kts | 279° |
| 2026-04-17 21:10 | 35.64598 | -113.44269 | 24360 ft | 390 kts | 279° |
| 2026-04-17 21:10 | 35.64971 | -113.47566 | 23992 ft | 389 kts | 279° |
| 2026-04-17 21:10 | 35.65396 | -113.50843 | 23603 ft | 386 kts | 282° |
| 2026-04-17 21:11 | 35.65943 | -113.54067 | 23191 ft | 384 kts | 282° |
| 2026-04-17 21:11 | 35.66473 | -113.57282 | 22814 ft | 383 kts | 282° |
| 2026-04-17 21:11 | 35.66989 | -113.60484 | 22441 ft | 381 kts | 282° |
| 2026-04-17 21:11 | 35.67509 | -113.63675 | 22071 ft | 379 kts | 282° |
| 2026-04-17 21:12 | 35.68032 | -113.66844 | 21695 ft | 378 kts | 282° |
| 2026-04-17 21:12 | 35.68550 | -113.70005 | 21338 ft | 376 kts | 282° |
| 2026-04-17 21:12 | 35.69061 | -113.73155 | 20966 ft | 374 kts | 282° |
| 2026-04-17 21:12 | 35.69570 | -113.76290 | 20602 ft | 373 kts | 282° |
| 2026-04-17 21:13 | 35.70012 | -113.79002 | 20289 ft | 373 kts | 282° |
| 2026-04-17 21:13 | 35.70471 | -113.81825 | 19966 ft | 371 kts | 282° |
| 2026-04-17 21:13 | 35.70840 | -113.84104 | 19701 ft | 370 kts | 282° |
| 2026-04-17 21:13 | 35.71269 | -113.86757 | 19390 ft | 368 kts | 282° |
| 2026-04-17 21:14 | 35.71767 | -113.89839 | 19029 ft | 367 kts | 282° |
| 2026-04-17 21:14 | 35.72263 | -113.92917 | 18696 ft | 366 kts | 282° |
| 2026-04-17 21:14 | 35.72757 | -113.95983 | 18306 ft | 364 kts | 282° |
| 2026-04-17 21:14 | 35.73247 | -113.99033 | 17867 ft | 363 kts | 282° |
| 2026-04-17 21:15 | 35.73731 | -114.02050 | 17444 ft | 348 kts | 282° |
| 2026-04-17 21:15 | 35.74180 | -114.04865 | 17004 ft | 324 kts | 282° |
| 2026-04-17 21:15 | 35.74603 | -114.07511 | 16537 ft | 306 kts | 283° |
| 2026-04-17 21:15 | 35.75006 | -114.10027 | 16080 ft | 296 kts | 283° |
| 2026-04-17 21:16 | 35.75402 | -114.12501 | 15630 ft | 293 kts | 283° |
| 2026-04-17 21:16 | 35.75814 | -114.14916 | 15219 ft | 290 kts | 287° |
| 2026-04-17 21:16 | 35.76665 | -114.17143 | 15217 ft | 285 kts | 299° |
| 2026-04-17 21:16 | 35.77619 | -114.19275 | 15012 ft | 287 kts | 299° |
| 2026-04-17 21:17 | 35.78567 | -114.21443 | 14737 ft | 288 kts | 298° |
| 2026-04-17 21:17 | 35.79514 | -114.23601 | 14459 ft | 285 kts | 299° |
| 2026-04-17 21:17 | 35.80460 | -114.25737 | 14183 ft | 283 kts | 299° |
| 2026-04-17 21:17 | 35.81447 | -114.27960 | 13942 ft | 313 kts | 299° |
| 2026-04-17 21:18 | 35.82539 | -114.30438 | 13950 ft | 343 kts | 299° |
| 2026-04-17 21:18 | 35.83431 | -114.33264 | 13913 ft | 368 kts | 283° |
| 2026-04-17 21:18 | 35.83544 | -114.36496 | 13925 ft | 383 kts | 267° |
| 2026-04-17 21:18 | 35.83197 | -114.39782 | 13953 ft | 386 kts | 265° |
| 2026-04-17 21:19 | 35.82807 | -114.43086 | 13955 ft | 392 kts | 264° |
| 2026-04-17 21:19 | 35.82446 | -114.46412 | 13949 ft | 391 kts | 265° |
| 2026-04-17 21:19 | 35.82103 | -114.49742 | 13946 ft | 391 kts | 265° |
| 2026-04-17 21:19 | 35.81748 | -114.53050 | 13958 ft | 390 kts | 265° |
| 2026-04-17 21:20 | 35.81378 | -114.56390 | 13958 ft | 392 kts | 265° |
| 2026-04-17 21:20 | 35.81010 | -114.59742 | 13957 ft | 394 kts | 264° |
| 2026-04-17 21:20 | 35.80647 | -114.63087 | 13959 ft | 392 kts | 265° |
| 2026-04-17 21:20 | 35.80286 | -114.66401 | 13974 ft | 391 kts | 265° |
| 2026-04-17 21:21 | 35.79920 | -114.69723 | 13977 ft | 392 kts | 264° |
| 2026-04-17 21:21 | 35.79553 | -114.73064 | 13976 ft | 391 kts | 264° |
| 2026-04-17 21:21 | 35.79187 | -114.76383 | 13977 ft | 388 kts | 265° |
| 2026-04-17 21:21 | 35.78820 | -114.79695 | 13995 ft | 392 kts | 265° |
| 2026-04-17 21:22 | 35.78453 | -114.83014 | 13988 ft | 393 kts | 264° |
| 2026-04-17 21:22 | 35.78082 | -114.86356 | 13741 ft | 393 kts | 264° |
| 2026-04-17 21:22 | 35.77707 | -114.89671 | 13407 ft | 387 kts | 265° |
| 2026-04-17 21:22 | 35.76956 | -114.92899 | 13021 ft | 396 kts | 249° |
| 2026-04-17 21:23 | 35.75470 | -114.95799 | 12978 ft | 405 kts | 234° |
| 2026-04-17 21:23 | 35.73498 | -114.98079 | 12988 ft | 371 kts | 222° |
| 2026-04-17 21:23 | 35.71585 | -114.99987 | 12987 ft | 342 kts | 224° |
| 2026-04-17 21:23 | 35.69742 | -115.01859 | 12993 ft | 343 kts | 224° |
| 2026-04-17 21:24 | 35.67902 | -115.03738 | 12996 ft | 344 kts | 224° |
| 2026-04-17 21:24 | 35.66054 | -115.05601 | 13015 ft | 343 kts | 223° |
| 2026-04-17 21:24 | 35.64201 | -115.07456 | 12997 ft | 344 kts | 223° |
| 2026-04-17 21:24 | 35.62389 | -115.09280 | 12852 ft | 332 kts | 224° |
| 2026-04-17 21:25 | 35.60671 | -115.11007 | 12611 ft | 310 kts | 224° |
| 2026-04-17 21:25 | 35.59025 | -115.12671 | 12358 ft | 305 kts | 223° |
| 2026-04-17 21:25 | 35.57387 | -115.14327 | 12110 ft | 304 kts | 222° |
| 2026-04-17 21:25 | 35.55750 | -115.15972 | 11848 ft | 305 kts | 225° |
| 2026-04-17 21:26 | 35.54336 | -115.17866 | 11534 ft | 298 kts | 242° |
| 2026-04-17 21:26 | 35.53618 | -115.20199 | 11283 ft | 290 kts | 263° |
| 2026-04-17 21:26 | 35.53527 | -115.22633 | 11066 ft | 287 kts | 274° |
| 2026-04-17 21:26 | 35.53544 | -115.25089 | 10840 ft | 286 kts | 275° |
| 2026-04-17 21:27 | 35.53547 | -115.27523 | 10607 ft | 285 kts | 274° |
| 2026-04-17 21:27 | 35.53633 | -115.29951 | 10302 ft | 282 kts | 284° |
| 2026-04-17 21:27 | 35.54363 | -115.32140 | 10030 ft | 275 kts | 305° |
| 2026-04-17 21:27 | 35.55626 | -115.33822 | 9989 ft | 267 kts | 323° |
| 2026-04-17 21:28 | 35.57293 | -115.34884 | 9831 ft | 271 kts | 342° |
| 2026-04-17 21:28 | 35.59139 | -115.35359 | 9652 ft | 269 kts | 349° |
| 2026-04-17 21:28 | 35.60963 | -115.35782 | 9429 ft | 267 kts | 349° |
| 2026-04-17 21:28 | 35.62795 | -115.36220 | 9188 ft | 267 kts | 349° |
| 2026-04-17 21:29 | 35.64611 | -115.36501 | 8960 ft | 260 kts | 2° |
| 2026-04-17 21:29 | 35.66415 | -115.36119 | 9012 ft | 263 kts | 11° |
| 2026-04-17 21:29 | 35.68196 | -115.35666 | 9017 ft | 267 kts | 10° |
| 2026-04-17 21:29 | 35.70014 | -115.35220 | 9019 ft | 265 kts | 10° |
| 2026-04-17 21:30 | 35.71803 | -115.34777 | 8963 ft | 266 kts | 10° |
| 2026-04-17 21:30 | 35.73597 | -115.34329 | 8789 ft | 265 kts | 11° |
| 2026-04-17 21:30 | 35.75380 | -115.33881 | 8569 ft | 260 kts | 11° |
| 2026-04-17 21:30 | 35.77174 | -115.33433 | 8334 ft | 261 kts | 11° |
| 2026-04-17 21:31 | 35.78932 | -115.32995 | 8118 ft | 257 kts | 11° |
| 2026-04-17 21:31 | 35.80659 | -115.32379 | 7988 ft | 256 kts | 22° |
| 2026-04-17 21:31 | 35.82267 | -115.31444 | 7878 ft | 258 kts | 24° |
| 2026-04-17 21:31 | 35.83842 | -115.30534 | 7561 ft | 242 kts | 23° |
| 2026-04-17 21:32 | 35.85325 | -115.29697 | 7252 ft | 229 kts | 24° |
| 2026-04-17 21:32 | 35.86744 | -115.28895 | 6965 ft | 220 kts | 24° |
| 2026-04-17 21:32 | 35.88117 | -115.28113 | 6674 ft | 214 kts | 24° |
| 2026-04-17 21:32 | 35.89466 | -115.27362 | 6394 ft | 211 kts | 24° |
| 2026-04-17 21:33 | 35.90786 | -115.26610 | 6093 ft | 208 kts | 24° |
| 2026-04-17 21:33 | 35.92095 | -115.25860 | 5841 ft | 206 kts | 24° |
| 2026-04-17 21:33 | 35.93398 | -115.25116 | 5571 ft | 206 kts | 24° |
| 2026-04-17 21:33 | 35.94668 | -115.24382 | 5282 ft | 197 kts | 25° |
| 2026-04-17 21:34 | 35.95850 | -115.23705 | 5234 ft | 178 kts | 23° |
| 2026-04-17 21:34 | 35.96948 | -115.23098 | 4955 ft | 169 kts | 23° |
| 2026-04-17 21:34 | 35.98950 | -115.21959 | 4458 ft | 136 kts | 23° |
| 2026-04-17 21:35 | 35.99802 | -115.21471 | 4254 ft | 139 kts | 24° |
| 2026-04-17 21:35 | 36.00661 | -115.20977 | 4056 ft | 134 kts | 24° |
| 2026-04-17 21:35 | 36.01506 | -115.20493 | 3868 ft | 134 kts | 24° |
| 2026-04-17 21:35 | 36.02353 | -115.20008 | 3648 ft | 138 kts | 25° |
| 2026-04-17 21:36 | 36.03222 | -115.19512 | 3443 ft | 139 kts | 23° |
| 2026-04-17 21:36 | 36.04011 | -115.19052 | 3197 ft | 115 kts | 25° |
| 2026-04-17 21:36 | 36.04702 | -115.18655 | 3000 ft | 106 kts | 23° |
| 2026-04-17 21:36 | 36.05383 | -115.18261 | 2813 ft | 107 kts | 25° |
| 2026-04-17 21:37 | 36.06083 | -115.17849 | 2635 ft | 113 kts | 22° |
| 2026-04-17 21:37 | 36.06802 | -115.17453 | 2433 ft | 111 kts | 24° |
| 2026-04-17 21:37 | 36.07478 | -115.17068 | 2251 ft | 105 kts | 25° |
| 2026-04-17 21:37 | 36.08124 | -115.16698 | 2152 ft | 95 kts | 24° |
| 2026-04-17 21:38 | 36.08543 | -115.16459 | 2134 ft | 38 kts | 25° |
| 2026-04-17 21:38 | 36.08764 | -115.16335 | 2127 ft | 34 kts | 24° |
| 2026-04-17 21:38 | 36.08904 | -115.16284 | 2123 ft | 15 kts | 334° |
| 2026-04-17 21:38 | 36.08954 | -115.16390 | 2133 ft | 16 kts | 296° |
| 2026-04-17 21:39 | 36.08912 | -115.16491 | 2140 ft | 18 kts | 202° |
| 2026-04-17 21:39 | 36.08810 | -115.16548 | 2144 ft | 15 kts | 205° |
| 2026-04-17 21:39 | 36.08688 | -115.16617 | 2148 ft | 25 kts | 205° |
| 2026-04-17 21:39 | 36.08515 | -115.16717 | 2150 ft | 24 kts | 205° |
| 2026-04-17 21:40 | 36.08370 | -115.16800 | 2157 ft | 22 kts | 205° |
| 2026-04-17 21:40 | 36.08245 | -115.16871 | 2161 ft | 19 kts | 204° |
| 2026-04-17 21:40 | 36.08152 | -115.16947 | 2164 ft | 13 kts | 251° |
| 2026-04-17 21:40 | 36.08124 | -115.17020 | 2165 ft | 5 kts | 266° |
| 2026-04-17 21:41 | 36.08124 | -115.17023 | 2165 ft | 0 kts | 269° |